sensor_id;sensor_type;location;lat;lon;timestamp;pressure;altitude;pressure_sealevel;temperature;humidity
57462;BME280;43308;47.306;8.608;2023-12-29T00:01:35;95618.22;;;7.45;63.72
57462;BME280;43308;47.306;8.608;2023-12-29T00:04:00;95610.81;;;7.47;63.68
57462;BME280;43308;47.306;8.608;2023-12-29T00:06:28;95598.56;;;7.52;63.11
57462;BME280;43308;47.306;8.608;2023-12-29T00:08:54;95597.50;;;7.58;62.68
57462;BME280;43308;47.306;8.608;2023-12-29T00:11:21;95595.63;;;7.58;62.75
57462;BME280;43308;47.306;8.608;2023-12-29T00:13:47;95586.09;;;7.57;62.86
57462;BME280;43308;47.306;8.608;2023-12-29T00:16:15;95590.84;;;7.55;63.28
57462;BME280;43308;47.306;8.608;2023-12-29T00:18:41;95591.41;;;7.57;63.36
57462;BME280;43308;47.306;8.608;2023-12-29T00:21:06;95585.81;;;7.54;63.67
57462;BME280;43308;47.306;8.608;2023-12-29T00:23:33;95583.72;;;7.51;63.72
57462;BME280;43308;47.306;8.608;2023-12-29T00:25:59;95575.19;;;7.48;63.32
57462;BME280;43308;47.306;8.608;2023-12-29T00:28:24;95594.31;;;7.56;63.33
57462;BME280;43308;47.306;8.608;2023-12-29T00:30:53;95589.00;;;7.56;63.49
57462;BME280;43308;47.306;8.608;2023-12-29T00:33:20;95574.16;;;7.55;63.23
57462;BME280;43308;47.306;8.608;2023-12-29T00:35:46;95566.44;;;7.53;63.31
57462;BME280;43308;47.306;8.608;2023-12-29T00:38:12;95567.75;;;7.61;62.56
57462;BME280;43308;47.306;8.608;2023-12-29T00:40:38;95564.53;;;7.64;61.97
57462;BME280;43308;47.306;8.608;2023-12-29T00:43:04;95552.28;;;7.68;61.85
57462;BME280;43308;47.306;8.608;2023-12-29T00:45:30;95576.44;;;7.81;60.28
57462;BME280;43308;47.306;8.608;2023-12-29T00:47:59;95558.34;;;7.88;61.38
57462;BME280;43308;47.306;8.608;2023-12-29T00:50:25;95558.59;;;7.92;60.20
57462;BME280;43308;47.306;8.608;2023-12-29T00:52:52;95552.16;;;8.03;59.59
57462;BME280;43308;47.306;8.608;2023-12-29T00:55:19;95559.78;;;8.20;58.83
57462;BME280;43308;47.306;8.608;2023-12-29T00:57:46;95558.38;;;8.37;58.87
57462;BME280;43308;47.306;8.608;2023-12-29T01:00:12;95541.34;;;8.38;58.12
57462;BME280;43308;47.306;8.608;2023-12-29T01:02:39;95557.00;;;8.45;58.56
57462;BME280;43308;47.306;8.608;2023-12-29T01:05:05;95557.03;;;8.40;58.48
57462;BME280;43308;47.306;8.608;2023-12-29T01:07:31;95547.47;;;8.39;58.47
57462;BME280;43308;47.306;8.608;2023-12-29T01:09:58;95554.88;;;8.42;58.22
57462;BME280;43308;47.306;8.608;2023-12-29T01:12:25;95558.06;;;8.44;58.46
57462;BME280;43308;47.306;8.608;2023-12-29T01:14:51;95558.34;;;8.42;58.96
57462;BME280;43308;47.306;8.608;2023-12-29T01:17:16;95545.34;;;8.36;59.11
57462;BME280;43308;47.306;8.608;2023-12-29T01:19:42;95566.34;;;8.37;58.75
57462;BME280;43308;47.306;8.608;2023-12-29T01:22:08;95553.03;;;8.37;58.89
57462;BME280;43308;47.306;8.608;2023-12-29T01:24:34;95541.38;;;8.33;58.28
57462;BME280;43308;47.306;8.608;2023-12-29T01:26:59;95552.78;;;8.39;58.07
57462;BME280;43308;47.306;8.608;2023-12-29T01:29:25;95563.06;;;8.50;57.72
57462;BME280;43308;47.306;8.608;2023-12-29T01:31:51;95567.84;;;8.53;57.52
57462;BME280;43308;47.306;8.608;2023-12-29T01:34:17;95555.13;;;8.45;57.86
57462;BME280;43308;47.306;8.608;2023-12-29T01:36:42;95560.47;;;8.40;58.29
57462;BME280;43308;47.306;8.608;2023-12-29T01:39:08;95567.94;;;8.38;58.77
57462;BME280;43308;47.306;8.608;2023-12-29T01:41:34;95566.13;;;8.34;59.24
57462;BME280;43308;47.306;8.608;2023-12-29T01:46:28;95560.56;;;8.20;59.78
57462;BME280;43308;47.306;8.608;2023-12-29T01:48:54;95549.94;;;8.15;60.24
57462;BME280;43308;47.306;8.608;2023-12-29T01:51:23;95562.72;;;8.13;60.16
57462;BME280;43308;47.306;8.608;2023-12-29T01:53:54;95557.97;;;8.10;58.90
57462;BME280;43308;47.306;8.608;2023-12-29T01:56:21;95564.88;;;8.11;59.03
57462;BME280;43308;47.306;8.608;2023-12-29T01:58:49;95572.81;;;8.16;58.80
57462;BME280;43308;47.306;8.608;2023-12-29T02:01:19;95576.25;;;8.22;57.20
57462;BME280;43308;47.306;8.608;2023-12-29T02:03:45;95565.34;;;8.23;57.29
57462;BME280;43308;47.306;8.608;2023-12-29T02:06:12;95566.94;;;8.29;57.54
57462;BME280;43308;47.306;8.608;2023-12-29T02:08:42;95564.28;;;8.24;57.56
57462;BME280;43308;47.306;8.608;2023-12-29T02:11:09;95553.91;;;8.23;57.28
57462;BME280;43308;47.306;8.608;2023-12-29T02:13:35;95565.06;;;8.25;57.08
57462;BME280;43308;47.306;8.608;2023-12-29T02:16:08;95550.44;;;8.22;57.11
57462;BME280;43308;47.306;8.608;2023-12-29T02:18:36;95557.88;;;8.25;56.70
57462;BME280;43308;47.306;8.608;2023-12-29T02:21:03;95548.34;;;8.19;56.98
57462;BME280;43308;47.306;8.608;2023-12-29T02:23:29;95551.25;;;8.23;57.46
57462;BME280;43308;47.306;8.608;2023-12-29T02:26:01;95536.94;;;8.14;57.83
57462;BME280;43308;47.306;8.608;2023-12-29T02:28:31;95544.38;;;8.17;57.63
57462;BME280;43308;47.306;8.608;2023-12-29T02:31:11;95529.78;;;8.09;57.67
57462;BME280;43308;47.306;8.608;2023-12-29T02:33:40;95541.72;;;8.17;57.45
57462;BME280;43308;47.306;8.608;2023-12-29T02:36:06;95530.31;;;8.11;57.67
57462;BME280;43308;47.306;8.608;2023-12-29T02:38:33;95517.81;;;8.12;57.68
57462;BME280;43308;47.306;8.608;2023-12-29T02:40:59;95536.41;;;8.17;57.44
57462;BME280;43308;47.306;8.608;2023-12-29T02:43:25;95528.91;;;8.24;57.75
57462;BME280;43308;47.306;8.608;2023-12-29T02:45:51;95527.31;;;8.23;57.58
57462;BME280;43308;47.306;8.608;2023-12-29T02:48:18;95535.03;;;8.24;57.82
57462;BME280;43308;47.306;8.608;2023-12-29T02:50:45;95530.47;;;8.25;57.79
57462;BME280;43308;47.306;8.608;2023-12-29T02:53:11;95526.25;;;8.29;57.29
57462;BME280;43308;47.306;8.608;2023-12-29T02:55:38;95513.75;;;8.24;57.43
57462;BME280;43308;47.306;8.608;2023-12-29T02:58:04;95516.66;;;8.33;57.25
57462;BME280;43308;47.306;8.608;2023-12-29T03:00:29;95516.66;;;8.33;57.19
57462;BME280;43308;47.306;8.608;2023-12-29T03:02:55;95529.63;;;8.39;57.27
57462;BME280;43308;47.306;8.608;2023-12-29T03:05:21;95533.88;;;8.40;56.91
57462;BME280;43308;47.306;8.608;2023-12-29T03:07:46;95522.22;;;8.36;57.34
57462;BME280;43308;47.306;8.608;2023-12-29T03:10:12;95522.69;;;8.43;56.20
57462;BME280;43308;47.306;8.608;2023-12-29T03:12:38;95539.94;;;8.51;56.76
57462;BME280;43308;47.306;8.608;2023-12-29T03:15:04;95528.25;;;8.47;56.45
57462;BME280;43308;47.306;8.608;2023-12-29T03:17:30;95537.56;;;8.49;55.61
57462;BME280;43308;47.306;8.608;2023-12-29T03:19:55;95526.88;;;8.54;54.94
57462;BME280;43308;47.306;8.608;2023-12-29T03:22:21;95528.41;;;8.61;54.91
57462;BME280;43308;47.306;8.608;2023-12-29T03:24:48;95543.31;;;8.62;54.77
57462;BME280;43308;47.306;8.608;2023-12-29T03:27:14;95539.63;;;8.58;54.62
57462;BME280;43308;47.306;8.608;2023-12-29T03:29:39;95534.28;;;8.58;54.99
57462;BME280;43308;47.306;8.608;2023-12-29T03:32:05;95521.78;;;8.58;54.10
57462;BME280;43308;47.306;8.608;2023-12-29T03:34:33;95541.16;;;8.69;53.90
57462;BME280;43308;47.306;8.608;2023-12-29T03:36:58;95543.25;;;8.72;54.36
57462;BME280;43308;47.306;8.608;2023-12-29T03:39:24;95534.50;;;8.66;53.96
57462;BME280;43308;47.306;8.608;2023-12-29T03:41:50;95529.94;;;8.72;54.02
57462;BME280;43308;47.306;8.608;2023-12-29T03:44:16;95521.16;;;8.71;54.41
57462;BME280;43308;47.306;8.608;2023-12-29T03:46:43;95514.78;;;8.67;54.64
57462;BME280;43308;47.306;8.608;2023-12-29T03:49:09;95516.09;;;8.70;55.46
57462;BME280;43308;47.306;8.608;2023-12-29T03:51:34;95515.09;;;8.61;56.48
57462;BME280;43308;47.306;8.608;2023-12-29T03:54:00;95516.47;;;8.58;57.56
57462;BME280;43308;47.306;8.608;2023-12-29T03:56:26;95523.66;;;8.58;57.46
57462;BME280;43308;47.306;8.608;2023-12-29T03:58:52;95520.25;;;8.52;56.19
57462;BME280;43308;47.306;8.608;2023-12-29T04:01:18;95517.84;;;8.50;56.62
57462;BME280;43308;47.306;8.608;2023-12-29T04:03:46;95524.00;;;8.46;56.85
57462;BME280;43308;47.306;8.608;2023-12-29T04:06:13;95515.25;;;8.40;56.55
57462;BME280;43308;47.306;8.608;2023-12-29T04:08:39;95532.00;;;8.46;56.98
57462;BME280;43308;47.306;8.608;2023-12-29T04:11:06;95520.09;;;8.33;57.39
57462;BME280;43308;47.306;8.608;2023-12-29T04:13:32;95534.97;;;8.39;58.48
57462;BME280;43308;47.306;8.608;2023-12-29T04:15:58;95524.06;;;8.36;58.95
57462;BME280;43308;47.306;8.608;2023-12-29T04:18:24;95512.38;;;8.32;58.63
57462;BME280;43308;47.306;8.608;2023-12-29T04:20:50;95508.16;;;8.26;58.92
57462;BME280;43308;47.306;8.608;2023-12-29T04:23:16;95522.22;;;8.31;59.47
57462;BME280;43308;47.306;8.608;2023-12-29T04:25:42;95507.34;;;8.25;60.02
57462;BME280;43308;47.306;8.608;2023-12-29T04:28:08;95506.53;;;8.25;60.19
57462;BME280;43308;47.306;8.608;2023-12-29T04:30:35;95507.09;;;8.27;60.16
57462;BME280;43308;47.306;8.608;2023-12-29T04:33:00;95505.75;;;8.29;60.41
57462;BME280;43308;47.306;8.608;2023-12-29T04:35:26;95523.00;;;8.37;60.75
57462;BME280;43308;47.306;8.608;2023-12-29T04:37:53;95514.53;;;8.30;60.88
57462;BME280;43308;47.306;8.608;2023-12-29T04:40:19;95516.09;;;8.36;61.13
57462;BME280;43308;47.306;8.608;2023-12-29T04:42:44;95507.88;;;8.32;60.90
57462;BME280;43308;47.306;8.608;2023-12-29T04:45:11;95509.41;;;8.43;60.39
57462;BME280;43308;47.306;8.608;2023-12-29T04:47:37;95516.47;;;8.53;60.15
57462;BME280;43308;47.306;8.608;2023-12-29T04:50:03;95508.47;;;8.58;59.34
57462;BME280;43308;47.306;8.608;2023-12-29T04:52:31;95510.81;;;8.65;60.07
57462;BME280;43308;47.306;8.608;2023-12-29T04:54:57;95529.88;;;8.77;59.80
57462;BME280;43308;47.306;8.608;2023-12-29T04:57:23;95533.91;;;8.74;59.72
57462;BME280;43308;47.306;8.608;2023-12-29T04:59:49;95525.91;;;8.74;59.54
57462;BME280;43308;47.306;8.608;2023-12-29T05:02:16;95530.13;;;8.80;59.41
57462;BME280;43308;47.306;8.608;2023-12-29T05:04:42;95525.69;;;8.71;60.25
57462;BME280;43308;47.306;8.608;2023-12-29T05:07:08;95538.44;;;8.74;59.92
57462;BME280;43308;47.306;8.608;2023-12-29T05:09:34;95534.78;;;8.65;59.58
57462;BME280;43308;47.306;8.608;2023-12-29T05:12:00;95534.25;;;8.63;60.82
57462;BME280;43308;47.306;8.608;2023-12-29T05:14:26;95538.00;;;8.62;62.33
57462;BME280;43308;47.306;8.608;2023-12-29T05:16:53;95528.72;;;8.54;62.99
57462;BME280;43308;47.306;8.608;2023-12-29T05:19:19;95532.75;;;8.51;63.70
57462;BME280;43308;47.306;8.608;2023-12-29T05:21:45;95531.69;;;8.47;64.28
57462;BME280;43308;47.306;8.608;2023-12-29T05:24:11;95529.63;;;8.39;64.83
57462;BME280;43308;47.306;8.608;2023-12-29T05:26:37;95522.75;;;8.33;65.55
57462;BME280;43308;47.306;8.608;2023-12-29T05:29:03;95519.59;;;8.26;65.86
57462;BME280;43308;47.306;8.608;2023-12-29T05:31:29;95518.53;;;8.27;66.17
57462;BME280;43308;47.306;8.608;2023-12-29T05:33:55;95516.69;;;8.23;64.98
57462;BME280;43308;47.306;8.608;2023-12-29T05:36:21;95521.72;;;8.29;66.01
57462;BME280;43308;47.306;8.608;2023-12-29T05:38:47;95513.47;;;8.26;67.29
57462;BME280;43308;47.306;8.608;2023-12-29T05:41:14;95520.91;;;8.29;67.72
57462;BME280;43308;47.306;8.608;2023-12-29T05:43:40;95512.66;;;8.25;67.35
57462;BME280;43308;47.306;8.608;2023-12-29T05:46:10;95514.31;;;8.16;68.73
57462;BME280;43308;47.306;8.608;2023-12-29T05:48:39;95520.16;;;8.18;67.23
57462;BME280;43308;47.306;8.608;2023-12-29T05:51:08;95524.94;;;8.21;66.72
57462;BME280;43308;47.306;8.608;2023-12-29T05:53:35;95530.22;;;8.26;66.67
57462;BME280;43308;47.306;8.608;2023-12-29T05:56:00;95519.06;;;8.24;67.18
57462;BME280;43308;47.306;8.608;2023-12-29T05:58:26;95527.56;;;8.26;67.85
57462;BME280;43308;47.306;8.608;2023-12-29T06:00:52;95513.78;;;8.19;68.04
57462;BME280;43308;47.306;8.608;2023-12-29T06:03:18;95524.66;;;8.23;71.27
57462;BME280;43308;47.306;8.608;2023-12-29T06:05:44;95530.78;;;8.23;71.79
57462;BME280;43308;47.306;8.608;2023-12-29T06:08:09;95533.19;;;8.20;73.09
57462;BME280;43308;47.306;8.608;2023-12-29T06:10:35;95542.75;;;8.21;73.93
57462;BME280;43308;47.306;8.608;2023-12-29T06:13:02;95531.59;;;8.19;73.98
57462;BME280;43308;47.306;8.608;2023-12-29T06:15:28;95537.13;;;8.27;74.35
57462;BME280;43308;47.306;8.608;2023-12-29T06:17:54;95540.59;;;8.28;74.53
57462;BME280;43308;47.306;8.608;2023-12-29T06:20:20;95547.75;;;8.32;74.85
57462;BME280;43308;47.306;8.608;2023-12-29T06:22:46;95541.94;;;8.30;74.80
57462;BME280;43308;47.306;8.608;2023-12-29T06:25:12;95536.09;;;8.28;74.93
57462;BME280;43308;47.306;8.608;2023-12-29T06:27:38;95541.94;;;8.30;75.57
57462;BME280;43308;47.306;8.608;2023-12-29T06:30:06;95535.25;;;8.33;75.83
57462;BME280;43308;47.306;8.608;2023-12-29T06:32:33;95555.69;;;8.37;75.99
57462;BME280;43308;47.306;8.608;2023-12-29T06:34:59;95553.84;;;8.38;76.05
57462;BME280;43308;47.306;8.608;2023-12-29T06:37:24;95547.16;;;8.40;76.11
57462;BME280;43308;47.306;8.608;2023-12-29T06:39:50;95556.50;;;8.43;75.74
57462;BME280;43308;47.306;8.608;2023-12-29T06:42:16;95544.25;;;8.42;76.14
57462;BME280;43308;47.306;8.608;2023-12-29T06:44:41;95551.44;;;8.41;76.29
57462;BME280;43308;47.306;8.608;2023-12-29T06:47:07;95551.44;;;8.41;76.23
57462;BME280;43308;47.306;8.608;2023-12-29T06:49:34;95547.72;;;8.42;76.34
57462;BME280;43308;47.306;8.608;2023-12-29T06:52:00;95555.94;;;8.46;75.86
57462;BME280;43308;47.306;8.608;2023-12-29T06:54:26;95554.59;;;8.48;75.55
57462;BME280;43308;47.306;8.608;2023-12-29T06:56:52;95548.72;;;8.51;75.49
57462;BME280;43308;47.306;8.608;2023-12-29T06:59:18;95555.34;;;8.54;75.28
57462;BME280;43308;47.306;8.608;2023-12-29T07:01:46;95557.19;;;8.53;75.47
57462;BME280;43308;47.306;8.608;2023-12-29T07:04:12;95564.63;;;8.57;75.22
57462;BME280;43308;47.306;8.608;2023-12-29T07:06:39;95550.25;;;8.58;74.84
57462;BME280;43308;47.306;8.608;2023-12-29T07:09:05;95557.44;;;8.57;75.19
57462;BME280;43308;47.306;8.608;2023-12-29T07:11:34;95568.06;;;8.62;75.07
57462;BME280;43308;47.306;8.608;2023-12-29T07:14:00;95559.53;;;8.65;74.46
57462;BME280;43308;47.306;8.608;2023-12-29T07:16:26;95560.84;;;8.68;74.61
57462;BME280;43308;47.306;8.608;2023-12-29T07:18:53;95561.88;;;8.72;74.71
57462;BME280;43308;47.306;8.608;2023-12-29T07:21:19;95556.25;;;8.73;74.10
57462;BME280;43308;47.306;8.608;2023-12-29T07:23:45;95556.25;;;8.73;74.43
57462;BME280;43308;47.306;8.608;2023-12-29T07:26:11;95563.69;;;8.76;74.02
57462;BME280;43308;47.306;8.608;2023-12-29T07:28:37;95554.91;;;8.76;73.85
57462;BME280;43308;47.306;8.608;2023-12-29T07:31:02;95560.22;;;8.76;73.96
57462;BME280;43308;47.306;8.608;2023-12-29T07:33:29;95562.09;;;8.75;73.90
57462;BME280;43308;47.306;8.608;2023-12-29T07:35:55;95550.13;;;8.78;73.35
57462;BME280;43308;47.306;8.608;2023-12-29T07:38:21;95557.31;;;8.72;73.06
57462;BME280;43308;47.306;8.608;2023-12-29T07:40:46;95565.09;;;8.69;72.89
57462;BME280;43308;47.306;8.608;2023-12-29T07:43:14;95561.91;;;8.67;72.94
57462;BME280;43308;47.306;8.608;2023-12-29T07:45:40;95565.38;;;8.67;73.18
57462;BME280;43308;47.306;8.608;2023-12-29T07:48:06;95570.19;;;8.65;73.16
57462;BME280;43308;47.306;8.608;2023-12-29T07:50:32;95560.34;;;8.61;73.20
57462;BME280;43308;47.306;8.608;2023-12-29T07:52:58;95557.72;;;8.56;73.12
57462;BME280;43308;47.306;8.608;2023-12-29T07:55:26;95564.38;;;8.58;72.83
57462;BME280;43308;47.306;8.608;2023-12-29T07:57:51;95563.56;;;8.58;72.81
57462;BME280;43308;47.306;8.608;2023-12-29T08:00:18;95573.41;;;8.57;72.49
57462;BME280;43308;47.306;8.608;2023-12-29T08:02:43;95579.28;;;8.54;72.71
57462;BME280;43308;47.306;8.608;2023-12-29T08:05:10;95568.84;;;8.63;71.47
57462;BME280;43308;47.306;8.608;2023-12-29T08:07:36;95574.16;;;8.63;71.64
57462;BME280;43308;47.306;8.608;2023-12-29T08:10:06;95568.56;;;8.64;71.46
57462;BME280;43308;47.306;8.608;2023-12-29T08:12:32;95565.66;;;8.66;71.73
57462;BME280;43308;47.306;8.608;2023-12-29T08:15:04;95574.16;;;8.68;71.37
57462;BME280;43308;47.306;8.608;2023-12-29T08:17:32;95571.75;;;8.66;71.52
57462;BME280;43308;47.306;8.608;2023-12-29T08:19:58;95581.84;;;8.69;70.79
57462;BME280;43308;47.306;8.608;2023-12-29T08:22:24;95581.56;;;8.71;69.95
57462;BME280;43308;47.306;8.608;2023-12-29T08:24:49;95578.13;;;8.70;69.59
57462;BME280;43308;47.306;8.608;2023-12-29T08:27:22;95574.66;;;8.70;69.36
57462;BME280;43308;47.306;8.608;2023-12-29T08:29:51;95574.94;;;8.68;69.31
57462;BME280;43308;47.306;8.608;2023-12-29T08:32:17;95578.16;;;8.65;69.74
57462;BME280;43308;47.306;8.608;2023-12-29T08:34:43;95577.63;;;8.63;69.80
57462;BME280;43308;47.306;8.608;2023-12-29T08:37:09;95583.50;;;8.60;69.38
57462;BME280;43308;47.306;8.608;2023-12-29T08:39:34;95583.00;;;8.58;69.17
57462;BME280;43308;47.306;8.608;2023-12-29T08:42:00;95576.59;;;8.59;68.45
57462;BME280;43308;47.306;8.608;2023-12-29T08:44:26;95579.78;;;8.61;67.74
57462;BME280;43308;47.306;8.608;2023-12-29T08:46:51;95577.63;;;8.63;67.64
57462;BME280;43308;47.306;8.608;2023-12-29T08:49:17;95585.59;;;8.68;67.11
57462;BME280;43308;47.306;8.608;2023-12-29T08:51:44;95574.41;;;8.66;67.41
57462;BME280;43308;47.306;8.608;2023-12-29T08:54:09;95587.47;;;8.68;67.88
57462;BME280;43308;47.306;8.608;2023-12-29T08:56:35;95580.81;;;8.65;67.65
57462;BME280;43308;47.306;8.608;2023-12-29T08:59:01;95578.97;;;8.66;67.25
57462;BME280;43308;47.306;8.608;2023-12-29T09:01:26;95585.84;;;8.72;67.37
57462;BME280;43308;47.306;8.608;2023-12-29T09:03:52;95580.50;;;8.72;66.81
57462;BME280;43308;47.306;8.608;2023-12-29T09:06:18;95579.41;;;8.73;67.35
57462;BME280;43308;47.306;8.608;2023-12-29T09:08:44;95584.25;;;8.71;67.71
57462;BME280;43308;47.306;8.608;2023-12-29T09:11:10;95583.72;;;8.69;67.81
57462;BME280;43308;47.306;8.608;2023-12-29T09:13:36;95590.59;;;8.75;67.49
57462;BME280;43308;47.306;8.608;2023-12-29T09:16:01;95590.06;;;8.73;67.89
57462;BME280;43308;47.306;8.608;2023-12-29T09:18:27;95582.38;;;8.71;68.07
57462;BME280;43308;47.306;8.608;2023-12-29T09:20:52;95587.38;;;8.78;68.81
57462;BME280;43308;47.306;8.608;2023-12-29T09:23:18;95591.63;;;8.79;68.67
57462;BME280;43308;47.306;8.608;2023-12-29T09:25:44;95586.84;;;8.81;69.72
57462;BME280;43308;47.306;8.608;2023-12-29T09:28:09;95583.63;;;8.84;70.18
57462;BME280;43308;47.306;8.608;2023-12-29T09:30:35;95579.59;;;8.86;69.35
57462;BME280;43308;47.306;8.608;2023-12-29T09:33:01;95575.06;;;8.87;69.72
57462;BME280;43308;47.306;8.608;2023-12-29T09:35:27;95574.00;;;8.88;69.82
57462;BME280;43308;47.306;8.608;2023-12-29T09:37:52;95580.09;;;8.88;69.75
57462;BME280;43308;47.306;8.608;2023-12-29T09:40:18;95573.22;;;8.87;69.41
57462;BME280;43308;47.306;8.608;2023-12-29T09:42:44;95580.91;;;8.89;69.78
57462;BME280;43308;47.306;8.608;2023-12-29T09:45:13;95584.09;;;8.91;69.59
57462;BME280;43308;47.306;8.608;2023-12-29T09:47:41;95581.94;;;8.93;69.13
57462;BME280;43308;47.306;8.608;2023-12-29T09:50:12;95587.28;;;8.93;69.90
57462;BME280;43308;47.306;8.608;2023-12-29T09:52:41;95591.78;;;8.92;69.57
57462;BME280;43308;47.306;8.608;2023-12-29T09:55:10;95598.16;;;8.96;70.34
57462;BME280;43308;47.306;8.608;2023-12-29T09:57:37;95591.25;;;8.95;69.89
57462;BME280;43308;47.306;8.608;2023-12-29T10:00:09;95592.84;;;8.96;70.22
57462;BME280;43308;47.306;8.608;2023-12-29T10:02:39;95595.75;;;8.95;70.24
57462;BME280;43308;47.306;8.608;2023-12-29T10:05:05;95588.25;;;9.02;70.02
57462;BME280;43308;47.306;8.608;2023-12-29T10:07:36;95586.63;;;9.06;69.90
57462;BME280;43308;47.306;8.608;2023-12-29T10:10:06;95585.59;;;9.02;70.13
57462;BME280;43308;47.306;8.608;2023-12-29T10:12:32;95588.00;;;9.03;70.48
57462;BME280;43308;47.306;8.608;2023-12-29T10:17:48;95574.94;;;9.02;70.05
57462;BME280;43308;47.306;8.608;2023-12-29T10:25:28;95560.50;;;9.08;70.40
57462;BME280;43308;47.306;8.608;2023-12-29T10:27:56;95562.91;;;9.10;70.99
57462;BME280;43308;47.306;8.608;2023-12-29T10:30:22;95565.81;;;9.13;70.89
57462;BME280;43308;47.306;8.608;2023-12-29T10:32:52;95572.13;;;9.17;71.15
57462;BME280;43308;47.306;8.608;2023-12-29T10:35:18;95573.97;;;9.22;71.31
57462;BME280;43308;47.306;8.608;2023-12-29T10:37:43;95556.13;;;9.22;71.31
57462;BME280;43308;47.306;8.608;2023-12-29T10:40:16;95555.81;;;9.29;71.03
57462;BME280;43308;47.306;8.608;2023-12-29T10:42:55;95557.91;;;9.32;70.47
57462;BME280;43308;47.306;8.608;2023-12-29T10:45:21;95552.00;;;9.35;70.58
57462;BME280;43308;47.306;8.608;2023-12-29T10:47:47;95550.59;;;9.42;69.87
57462;BME280;43308;47.306;8.608;2023-12-29T10:50:14;95560.13;;;9.48;69.60
57462;BME280;43308;47.306;8.608;2023-12-29T10:52:39;95550.56;;;9.47;69.89
57462;BME280;43308;47.306;8.608;2023-12-29T10:55:10;95535.63;;;9.46;70.03
57462;BME280;43308;47.306;8.608;2023-12-29T10:57:37;95545.44;;;9.51;70.44
57462;BME280;43308;47.306;8.608;2023-12-29T11:00:05;95534.22;;;9.54;70.15
57462;BME280;43308;47.306;8.608;2023-12-29T11:02:32;95530.47;;;9.55;70.06
57462;BME280;43308;47.306;8.608;2023-12-29T11:05:06;95536.56;;;9.60;70.83
57462;BME280;43308;47.306;8.608;2023-12-29T11:07:37;95534.38;;;9.63;71.21
57462;BME280;43308;47.306;8.608;2023-12-29T11:10:07;95515.72;;;9.63;71.37
57462;BME280;43308;47.306;8.608;2023-12-29T11:12:35;95515.72;;;9.63;71.69
57462;BME280;43308;47.306;8.608;2023-12-29T11:15:02;95508.78;;;9.61;71.71
57462;BME280;43308;47.306;8.608;2023-12-29T11:17:30;95518.06;;;9.69;71.54
57462;BME280;43308;47.306;8.608;2023-12-29T11:20:00;95508.75;;;9.67;70.91
57462;BME280;43308;47.306;8.608;2023-12-29T11:22:28;95512.56;;;9.60;71.10
57462;BME280;43308;47.306;8.608;2023-12-29T11:24:54;95502.47;;;9.57;72.03
57462;BME280;43308;47.306;8.608;2023-12-29T11:27:21;95502.97;;;9.59;72.07
57462;BME280;43308;47.306;8.608;2023-12-29T11:29:47;95496.50;;;9.66;71.76
57462;BME280;43308;47.306;8.608;2023-12-29T11:32:22;95494.28;;;9.73;71.69
57462;BME280;43308;47.306;8.608;2023-12-29T11:34:57;95488.59;;;9.79;70.37
57462;BME280;43308;47.306;8.608;2023-12-29T11:40:22;95479.09;;;9.92;68.39
57462;BME280;43308;47.306;8.608;2023-12-29T11:42:53;95487.53;;;9.99;68.00
57462;BME280;43308;47.306;8.608;2023-12-29T11:47:50;95489.84;;;10.05;66.28
57462;BME280;43308;47.306;8.608;2023-12-29T11:50:29;95465.81;;;10.05;66.47
57462;BME280;43308;47.306;8.608;2023-12-29T11:52:56;95471.38;;;10.09;65.34
57462;BME280;43308;47.306;8.608;2023-12-29T11:55:28;95467.91;;;10.13;64.27
57462;BME280;43308;47.306;8.608;2023-12-29T11:57:54;95465.72;;;10.16;64.75
57462;BME280;43308;47.306;8.608;2023-12-29T12:00:28;95459.00;;;10.18;64.54
57462;BME280;43308;47.306;8.608;2023-12-29T12:05:48;95461.03;;;10.26;64.07
57462;BME280;43308;47.306;8.608;2023-12-29T12:08:36;95454.53;;;10.32;63.63
57462;BME280;43308;47.306;8.608;2023-12-29T12:13:57;95435.91;;;10.46;62.97
57462;BME280;43308;47.306;8.608;2023-12-29T12:19:14;95438.34;;;10.61;62.60
57462;BME280;43308;47.306;8.608;2023-12-29T12:21:40;95431.53;;;10.69;62.96
57462;BME280;43308;47.306;8.608;2023-12-29T12:24:07;95438.75;;;10.82;61.75
57462;BME280;43308;47.306;8.608;2023-12-29T12:26:33;95429.88;;;10.86;61.33
57462;BME280;43308;47.306;8.608;2023-12-29T12:29:00;95437.78;;;10.91;61.55
57462;BME280;43308;47.306;8.608;2023-12-29T12:31:26;95445.94;;;11.00;60.71
57462;BME280;43308;47.306;8.608;2023-12-29T12:33:59;95423.47;;;11.01;60.77
57462;BME280;43308;47.306;8.608;2023-12-29T12:36:28;95446.63;;;11.05;61.31
57462;BME280;43308;47.306;8.608;2023-12-29T12:38:56;95415.84;;;11.08;61.13
57462;BME280;43308;47.306;8.608;2023-12-29T12:41:22;95423.06;;;11.07;61.34
57462;BME280;43308;47.306;8.608;2023-12-29T12:44:08;95418.25;;;11.09;61.48
57462;BME280;43308;47.306;8.608;2023-12-29T12:46:40;95410.81;;;11.06;61.42
57462;BME280;43308;47.306;8.608;2023-12-29T12:49:07;95418.31;;;11.04;60.95
57462;BME280;43308;47.306;8.608;2023-12-29T12:51:33;95420.19;;;11.04;60.91
57462;BME280;43308;47.306;8.608;2023-12-29T12:54:00;95417.53;;;11.04;60.11
57462;BME280;43308;47.306;8.608;2023-12-29T12:56:26;95410.81;;;11.06;60.20
57462;BME280;43308;47.306;8.608;2023-12-29T12:59:02;95421.78;;;11.05;60.65
57462;BME280;43308;47.306;8.608;2023-12-29T13:01:28;95415.66;;;11.04;60.23
57462;BME280;43308;47.306;8.608;2023-12-29T13:03:57;95414.09;;;11.03;60.53
57462;BME280;43308;47.306;8.608;2023-12-29T13:06:24;95421.59;;;11.01;60.96
57462;BME280;43308;47.306;8.608;2023-12-29T13:08:51;95405.06;;;10.99;61.03
57462;BME280;43308;47.306;8.608;2023-12-29T13:11:19;95397.34;;;10.98;60.66
57462;BME280;43308;47.306;8.608;2023-12-29T13:13:47;95414.66;;;11.00;60.81
57462;BME280;43308;47.306;8.608;2023-12-29T13:16:13;95398.06;;;11.03;60.46
57462;BME280;43308;47.306;8.608;2023-12-29T13:18:39;95413.78;;;11.05;59.99
57462;BME280;43308;47.306;8.608;2023-12-29T13:21:05;95397.47;;;11.06;59.76
57462;BME280;43308;47.306;8.608;2023-12-29T13:23:32;95400.41;;;11.05;60.47
57462;BME280;43308;47.306;8.608;2023-12-29T13:26:05;95399.53;;;11.09;60.86
57462;BME280;43308;47.306;8.608;2023-12-29T13:28:33;95404.78;;;11.14;60.50
57462;BME280;43308;47.306;8.608;2023-12-29T13:31:00;95412.19;;;11.17;60.32
57462;BME280;43308;47.306;8.608;2023-12-29T13:33:32;95398.66;;;11.28;60.40